sensor_id;sensor_type;location;lat;lon;timestamp;temperature;humidity
9385;DHT22;4732;49.340;10.886;2023-09-19T03:03:42;16.10;99.90
9385;DHT22;4732;49.340;10.886;2023-09-19T03:06:08;16.10;99.90
9385;DHT22;4732;49.340;10.886;2023-09-19T03:08:35;16.20;99.90
9385;DHT22;4732;49.340;10.886;2023-09-19T03:11:03;16.20;99.90
9385;DHT22;4732;49.340;10.886;2023-09-19T03:13:29;16.20;99.90
9385;DHT22;4732;49.340;10.886;2023-09-19T03:15:56;16.20;99.90
9385;DHT22;4732;49.340;10.886;2023-09-19T03:18:24;16.10;99.90
9385;DHT22;4732;49.340;10.886;2023-09-19T03:20:54;16.20;99.90
9385;DHT22;4732;49.340;10.886;2023-09-19T03:23:20;16.10;99.90
9385;DHT22;4732;49.340;10.886;2023-09-19T03:25:46;16.10;99.90
9385;DHT22;4732;49.340;10.886;2023-09-19T03:28:12;16.00;99.90
9385;DHT22;4732;49.340;10.886;2023-09-19T03:30:37;15.90;99.90
9385;DHT22;4732;49.340;10.886;2023-09-19T03:33:04;15.90;99.90
9385;DHT22;4732;49.340;10.886;2023-09-19T03:35:30;15.90;99.90
9385;DHT22;4732;49.340;10.886;2023-09-19T03:37:56;15.90;99.90
9385;DHT22;4732;49.340;10.886;2023-09-19T03:40:21;15.90;99.90
9385;DHT22;4732;49.340;10.886;2023-09-19T03:42:48;16.00;99.90
9385;DHT22;4732;49.340;10.886;2023-09-19T03:45:14;16.00;99.90
9385;DHT22;4732;49.340;10.886;2023-09-19T03:47:39;16.10;99.90
9385;DHT22;4732;49.340;10.886;2023-09-19T03:50:06;16.00;99.90
9385;DHT22;4732;49.340;10.886;2023-09-19T03:52:36;16.00;99.90
9385;DHT22;4732;49.340;10.886;2023-09-19T03:55:02;16.00;99.90
9385;DHT22;4732;49.340;10.886;2023-09-19T03:57:35;16.00;99.90
9385;DHT22;4732;49.340;10.886;2023-09-19T04:00:01;16.00;99.90
9385;DHT22;4732;49.340;10.886;2023-09-19T04:02:26;16.00;99.90
9385;DHT22;4732;49.340;10.886;2023-09-19T04:04:58;16.00;99.90
9385;DHT22;4732;49.340;10.886;2023-09-19T04:07:23;15.90;99.90
9385;DHT22;4732;49.340;10.886;2023-09-19T04:09:51;15.90;99.90
9385;DHT22;4732;49.340;10.886;2023-09-19T04:12:18;15.90;99.90
9385;DHT22;4732;49.340;10.886;2023-09-19T04:14:44;15.80;99.90
9385;DHT22;4732;49.340;10.886;2023-09-19T04:17:10;15.90;99.90
9385;DHT22;4732;49.340;10.886;2023-09-19T04:19:36;15.80;99.90
9385;DHT22;4732;49.340;10.886;2023-09-19T04:22:02;15.80;99.90
9385;DHT22;4732;49.340;10.886;2023-09-19T04:24:28;15.90;99.90
9385;DHT22;4732;49.340;10.886;2023-09-19T04:26:54;15.80;99.90
9385;DHT22;4732;49.340;10.886;2023-09-19T04:29:19;15.80;99.90
9385;DHT22;4732;49.340;10.886;2023-09-19T04:31:45;15.80;99.90
9385;DHT22;4732;49.340;10.886;2023-09-19T04:34:11;15.70;99.90
9385;DHT22;4732;49.340;10.886;2023-09-19T04:36:43;15.70;99.90
9385;DHT22;4732;49.340;10.886;2023-09-19T04:39:08;15.60;99.90
9385;DHT22;4732;49.340;10.886;2023-09-19T04:41:36;15.60;99.90
9385;DHT22;4732;49.340;10.886;2023-09-19T04:44:05;15.60;99.90
9385;DHT22;4732;49.340;10.886;2023-09-19T04:46:30;15.60;99.90
9385;DHT22;4732;49.340;10.886;2023-09-19T04:48:56;15.70;99.90
9385;DHT22;4732;49.340;10.886;2023-09-19T04:51:22;15.70;99.90
9385;DHT22;4732;49.340;10.886;2023-09-19T04:53:48;15.70;99.90
9385;DHT22;4732;49.340;10.886;2023-09-19T04:56:13;15.70;99.90
9385;DHT22;4732;49.340;10.886;2023-09-19T04:58:39;15.70;99.90
9385;DHT22;4732;49.340;10.886;2023-09-19T05:01:04;15.70;99.90
9385;DHT22;4732;49.340;10.886;2023-09-19T05:03:30;15.70;99.90
9385;DHT22;4732;49.340;10.886;2023-09-19T05:05:55;15.80;99.90
9385;DHT22;4732;49.340;10.886;2023-09-19T05:08:21;15.80;99.90
9385;DHT22;4732;49.340;10.886;2023-09-19T05:10:47;15.80;99.90
9385;DHT22;4732;49.340;10.886;2023-09-19T05:13:14;15.80;99.90
9385;DHT22;4732;49.340;10.886;2023-09-19T05:15:40;15.80;99.90
9385;DHT22;4732;49.340;10.886;2023-09-19T05:18:05;15.80;99.90
9385;DHT22;4732;49.340;10.886;2023-09-19T05:20:31;15.90;99.90
9385;DHT22;4732;49.340;10.886;2023-09-19T05:23:04;15.90;99.90
9385;DHT22;4732;49.340;10.886;2023-09-19T05:25:33;15.90;99.90
9385;DHT22;4732;49.340;10.886;2023-09-19T05:28:02;15.90;99.90
9385;DHT22;4732;49.340;10.886;2023-09-19T05:30:29;15.90;99.90
9385;DHT22;4732;49.340;10.886;2023-09-19T05:32:55;15.90;99.90
9385;DHT22;4732;49.340;10.886;2023-09-19T05:35:22;15.90;99.90
9385;DHT22;4732;49.340;10.886;2023-09-19T05:37:50;15.90;99.90
9385;DHT22;4732;49.340;10.886;2023-09-19T05:40:17;15.90;99.90
9385;DHT22;4732;49.340;10.886;2023-09-19T05:42:43;15.90;99.90
9385;DHT22;4732;49.340;10.886;2023-09-19T05:45:10;15.90;99.90
9385;DHT22;4732;49.340;10.886;2023-09-19T05:47:40;16.00;99.90
9385;DHT22;4732;49.340;10.886;2023-09-19T05:50:06;16.00;99.90
9385;DHT22;4732;49.340;10.886;2023-09-19T05:52:34;16.00;99.90
9385;DHT22;4732;49.340;10.886;2023-09-19T05:55:00;16.00;99.90
9385;DHT22;4732;49.340;10.886;2023-09-19T05:57:25;16.10;99.90
9385;DHT22;4732;49.340;10.886;2023-09-19T05:59:51;16.00;99.90
9385;DHT22;4732;49.340;10.886;2023-09-19T06:02:16;16.10;99.90
9385;DHT22;4732;49.340;10.886;2023-09-19T06:04:42;16.10;99.90
9385;DHT22;4732;49.340;10.886;2023-09-19T06:07:07;16.10;99.90
9385;DHT22;4732;49.340;10.886;2023-09-19T06:09:33;16.10;99.90
9385;DHT22;4732;49.340;10.886;2023-09-19T06:11:59;16.20;99.90
9385;DHT22;4732;49.340;10.886;2023-09-19T06:14:28;16.20;99.90
9385;DHT22;4732;49.340;10.886;2023-09-19T06:16:54;16.20;99.90
9385;DHT22;4732;49.340;10.886;2023-09-19T06:19:20;16.20;99.90
9385;DHT22;4732;49.340;10.886;2023-09-19T06:21:48;16.20;99.90
9385;DHT22;4732;49.340;10.886;2023-09-19T06:24:14;16.20;99.90
9385;DHT22;4732;49.340;10.886;2023-09-19T06:26:40;16.20;99.90
9385;DHT22;4732;49.340;10.886;2023-09-19T06:29:06;16.20;99.90
9385;DHT22;4732;49.340;10.886;2023-09-19T06:31:34;16.40;99.90
9385;DHT22;4732;49.340;10.886;2023-09-19T06:33:59;16.40;99.90
9385;DHT22;4732;49.340;10.886;2023-09-19T06:36:25;16.60;99.90
9385;DHT22;4732;49.340;10.886;2023-09-19T06:38:50;16.60;99.90
9385;DHT22;4732;49.340;10.886;2023-09-19T06:41:18;16.50;99.90
9385;DHT22;4732;49.340;10.886;2023-09-19T06:43:44;16.50;99.90
9385;DHT22;4732;49.340;10.886;2023-09-19T06:46:10;16.60;99.90
9385;DHT22;4732;49.340;10.886;2023-09-19T06:48:38;16.60;99.90
9385;DHT22;4732;49.340;10.886;2023-09-19T06:51:03;16.60;99.90
9385;DHT22;4732;49.340;10.886;2023-09-19T06:53:33;16.70;99.90
9385;DHT22;4732;49.340;10.886;2023-09-19T06:56:01;16.60;99.90
9385;DHT22;4732;49.340;10.886;2023-09-19T06:58:26;16.60;99.90
9385;DHT22;4732;49.340;10.886;2023-09-19T07:00:52;16.70;99.90
9385;DHT22;4732;49.340;10.886;2023-09-19T07:03:17;16.70;99.90
9385;DHT22;4732;49.340;10.886;2023-09-19T07:05:47;16.90;99.90
9385;DHT22;4732;49.340;10.886;2023-09-19T07:08:13;17.10;99.90
9385;DHT22;4732;49.340;10.886;2023-09-19T07:10:40;17.20;99.90
9385;DHT22;4732;49.340;10.886;2023-09-19T07:13:15;17.40;99.90
9385;DHT22;4732;49.340;10.886;2023-09-19T07:15:43;17.60;99.90
9385;DHT22;4732;49.340;10.886;2023-09-19T07:18:13;17.80;99.90
9385;DHT22;4732;49.340;10.886;2023-09-19T07:20:40;17.90;99.90
9385;DHT22;4732;49.340;10.886;2023-09-19T07:23:11;17.90;99.90
9385;DHT22;4732;49.340;10.886;2023-09-19T07:25:39;17.90;99.90
9385;DHT22;4732;49.340;10.886;2023-09-19T07:28:04;17.90;99.90
9385;DHT22;4732;49.340;10.886;2023-09-19T07:30:30;17.90;99.90
9385;DHT22;4732;49.340;10.886;2023-09-19T07:32:56;17.90;99.90
9385;DHT22;4732;49.340;10.886;2023-09-19T07:35:21;18.00;99.90
9385;DHT22;4732;49.340;10.886;2023-09-19T07:37:48;18.00;99.90
9385;DHT22;4732;49.340;10.886;2023-09-19T07:40:17;17.90;99.90
9385;DHT22;4732;49.340;10.886;2023-09-19T07:42:42;18.00;99.90
9385;DHT22;4732;49.340;10.886;2023-09-19T07:45:10;19.70;99.90
9385;DHT22;4732;49.340;10.886;2023-09-19T07:47:51;18.10;99.90
9385;DHT22;4732;49.340;10.886;2023-09-19T07:50:18;18.00;99.90
9385;DHT22;4732;49.340;10.886;2023-09-19T07:52:50;18.00;99.90
9385;DHT22;4732;49.340;10.886;2023-09-19T07:55:19;18.20;99.90
9385;DHT22;4732;49.340;10.886;2023-09-19T07:57:48;18.20;99.90
9385;DHT22;4732;49.340;10.886;2023-09-19T08:00:14;18.60;99.90
9385;DHT22;4732;49.340;10.886;2023-09-19T08:02:41;18.90;99.90
9385;DHT22;4732;49.340;10.886;2023-09-19T08:05:07;18.90;99.90
9385;DHT22;4732;49.340;10.886;2023-09-19T08:07:39;18.90;99.90
9385;DHT22;4732;49.340;10.886;2023-09-19T08:10:05;18.70;99.90
9385;DHT22;4732;49.340;10.886;2023-09-19T08:12:38;18.60;99.90
9385;DHT22;4732;49.340;10.886;2023-09-19T08:15:17;18.50;99.90
9385;DHT22;4732;49.340;10.886;2023-09-19T08:17:44;18.60;99.90
9385;DHT22;4732;49.340;10.886;2023-09-19T08:20:10;18.70;99.90
9385;DHT22;4732;49.340;10.886;2023-09-19T08:22:43;18.70;99.90
9385;DHT22;4732;49.340;10.886;2023-09-19T08:25:09;18.80;99.90
9385;DHT22;4732;49.340;10.886;2023-09-19T08:27:35;19.10;99.90
9385;DHT22;4732;49.340;10.886;2023-09-19T08:30:01;19.20;99.90
9385;DHT22;4732;49.340;10.886;2023-09-19T08:32:28;19.30;99.90
9385;DHT22;4732;49.340;10.886;2023-09-19T08:34:54;19.20;99.90
9385;DHT22;4732;49.340;10.886;2023-09-19T08:37:19;19.10;99.90
9385;DHT22;4732;49.340;10.886;2023-09-19T08:39:45;19.10;99.90
9385;DHT22;4732;49.340;10.886;2023-09-19T08:42:11;19.20;99.90
9385;DHT22;4732;49.340;10.886;2023-09-19T08:44:38;19.40;99.90
9385;DHT22;4732;49.340;10.886;2023-09-19T08:47:15;19.60;99.90
9385;DHT22;4732;49.340;10.886;2023-09-19T08:50:08;19.70;99.90
9385;DHT22;4732;49.340;10.886;2023-09-19T08:52:43;19.70;99.90
9385;DHT22;4732;49.340;10.886;2023-09-19T08:55:13;19.70;99.90
9385;DHT22;4732;49.340;10.886;2023-09-19T08:57:45;19.60;99.90
9385;DHT22;4732;49.340;10.886;2023-09-19T09:00:15;19.70;99.90
9385;DHT22;4732;49.340;10.886;2023-09-19T09:02:43;19.70;99.90
9385;DHT22;4732;49.340;10.886;2023-09-19T09:05:09;19.70;99.90
9385;DHT22;4732;49.340;10.886;2023-09-19T09:07:40;19.50;99.90
9385;DHT22;4732;49.340;10.886;2023-09-19T09:10:06;19.40;99.90
9385;DHT22;4732;49.340;10.886;2023-09-19T09:12:33;19.40;99.90
9385;DHT22;4732;49.340;10.886;2023-09-19T09:15:02;19.30;99.90
9385;DHT22;4732;49.340;10.886;2023-09-19T09:17:29;19.20;99.90
9385;DHT22;4732;49.340;10.886;2023-09-19T09:19:55;19.10;99.90
9385;DHT22;4732;49.340;10.886;2023-09-19T09:22:21;19.00;99.90
9385;DHT22;4732;49.340;10.886;2023-09-19T09:24:59;19.00;99.90
9385;DHT22;4732;49.340;10.886;2023-09-19T09:27:27;19.00;99.90
9385;DHT22;4732;49.340;10.886;2023-09-19T09:29:53;19.10;99.90
9385;DHT22;4732;49.340;10.886;2023-09-19T09:34:54;19.20;99.90
9385;DHT22;4732;49.340;10.886;2023-09-19T09:37:20;19.40;99.90
9385;DHT22;4732;49.340;10.886;2023-09-19T09:39:55;19.60;99.90
9385;DHT22;4732;49.340;10.886;2023-09-19T09:42:35;19.80;99.90
9385;DHT22;4732;49.340;10.886;2023-09-19T09:45:17;19.80;99.90
9385;DHT22;4732;49.340;10.886;2023-09-19T09:47:48;19.80;99.90
9385;DHT22;4732;49.340;10.886;2023-09-19T09:50:29;20.00;99.90
9385;DHT22;4732;49.340;10.886;2023-09-19T09:53:02;20.10;99.90
9385;DHT22;4732;49.340;10.886;2023-09-19T09:56:01;19.90;99.90
9385;DHT22;4732;49.340;10.886;2023-09-19T09:58:28;19.90;99.90
9385;DHT22;4732;49.340;10.886;2023-09-19T10:01:00;20.20;99.90
9385;DHT22;4732;49.340;10.886;2023-09-19T10:03:40;20.60;99.90
9385;DHT22;4732;49.340;10.886;2023-09-19T10:06:13;20.70;99.90
9385;DHT22;4732;49.340;10.886;2023-09-19T10:09:06;20.80;99.90
9385;DHT22;4732;49.340;10.886;2023-09-19T10:12:05;20.90;99.90
9385;DHT22;4732;49.340;10.886;2023-09-19T10:14:35;21.00;99.90
9385;DHT22;4732;49.340;10.886;2023-09-19T10:17:05;21.10;99.90
9385;DHT22;4732;49.340;10.886;2023-09-19T10:19:37;21.40;99.90
9385;DHT22;4732;49.340;10.886;2023-09-19T10:22:05;21.40;99.90
9385;DHT22;4732;49.340;10.886;2023-09-19T10:24:33;21.40;99.90
9385;DHT22;4732;49.340;10.886;2023-09-19T10:27:02;21.30;99.90
9385;DHT22;4732;49.340;10.886;2023-09-19T10:29:32;21.20;99.90
9385;DHT22;4732;49.340;10.886;2023-09-19T10:32:01;21.10;99.90
9385;DHT22;4732;49.340;10.886;2023-09-19T10:34:34;21.20;99.90
9385;DHT22;4732;49.340;10.886;2023-09-19T10:37:02;21.10;99.90
9385;DHT22;4732;49.340;10.886;2023-09-19T10:39:32;21.50;99.90
9385;DHT22;4732;49.340;10.886;2023-09-19T10:42:02;21.70;99.90
9385;DHT22;4732;49.340;10.886;2023-09-19T10:44:32;21.70;99.90
9385;DHT22;4732;49.340;10.886;2023-09-19T10:46:57;21.80;99.90
9385;DHT22;4732;49.340;10.886;2023-09-19T10:49:23;22.00;99.90
9385;DHT22;4732;49.340;10.886;2023-09-19T10:51:53;22.20;99.90
9385;DHT22;4732;49.340;10.886;2023-09-19T10:54:22;22.40;99.90
9385;DHT22;4732;49.340;10.886;2023-09-19T10:56:52;22.10;99.90
9385;DHT22;4732;49.340;10.886;2023-09-19T10:59:21;22.10;99.90
9385;DHT22;4732;49.340;10.886;2023-09-19T11:01:49;21.80;99.90
9385;DHT22;4732;49.340;10.886;2023-09-19T11:04:32;21.60;99.90
9385;DHT22;4732;49.340;10.886;2023-09-19T11:07:02;21.90;99.90
9385;DHT22;4732;49.340;10.886;2023-09-19T11:09:46;22.10;99.90
9385;DHT22;4732;49.340;10.886;2023-09-19T11:14:57;22.30;99.90
9385;DHT22;4732;49.340;10.886;2023-09-19T11:17:40;22.40;99.90
9385;DHT22;4732;49.340;10.886;2023-09-19T11:30:32;21.50;99.90
9385;DHT22;4732;49.340;10.886;2023-09-19T11:33:18;21.20;99.90
9385;DHT22;4732;49.340;10.886;2023-09-19T11:36:12;20.70;99.90
9385;DHT22;4732;49.340;10.886;2023-09-19T11:43:54;20.00;99.90
9385;DHT22;4732;49.340;10.886;2023-09-19T11:46:53;20.00;99.90
9385;DHT22;4732;49.340;10.886;2023-09-19T11:49:21;20.20;99.90
9385;DHT22;4732;49.340;10.886;2023-09-19T11:51:51;20.50;99.90
9385;DHT22;4732;49.340;10.886;2023-09-19T11:54:17;21.00;99.90
9385;DHT22;4732;49.340;10.886;2023-09-19T11:56:44;21.30;99.90
9385;DHT22;4732;49.340;10.886;2023-09-19T11:59:11;21.10;99.90
9385;DHT22;4732;49.340;10.886;2023-09-19T12:01:38;21.20;99.90
9385;DHT22;4732;49.340;10.886;2023-09-19T12:04:11;21.30;99.90
9385;DHT22;4732;49.340;10.886;2023-09-19T12:06:37;21.30;99.90
9385;DHT22;4732;49.340;10.886;2023-09-19T12:09:12;21.30;99.90
9385;DHT22;4732;49.340;10.886;2023-09-19T12:11:42;21.60;99.90
9385;DHT22;4732;49.340;10.886;2023-09-19T12:14:09;21.90;99.90
9385;DHT22;4732;49.340;10.886;2023-09-19T12:16:35;22.20;99.90
9385;DHT22;4732;49.340;10.886;2023-09-19T12:19:21;22.40;99.90
9385;DHT22;4732;49.340;10.886;2023-09-19T12:22:00;22.50;99.90
9385;DHT22;4732;49.340;10.886;2023-09-19T12:24:34;22.40;99.90
9385;DHT22;4732;49.340;10.886;2023-09-19T12:27:04;22.10;99.90
9385;DHT22;4732;49.340;10.886;2023-09-19T12:29:47;21.90;99.90
9385;DHT22;4732;49.340;10.886;2023-09-19T12:32:17;21.80;99.90
9385;DHT22;4732;49.340;10.886;2023-09-19T12:34:51;21.70;99.90
9385;DHT22;4732;49.340;10.886;2023-09-19T12:37:18;21.70;99.90
9385;DHT22;4732;49.340;10.886;2023-09-19T12:39:48;22.00;99.90
9385;DHT22;4732;49.340;10.886;2023-09-19T12:42:16;22.10;99.90
9385;DHT22;4732;49.340;10.886;2023-09-19T12:44:46;22.20;99.90
9385;DHT22;4732;49.340;10.886;2023-09-19T12:47:15;22.10;99.90
9385;DHT22;4732;49.340;10.886;2023-09-19T12:50:11;22.10;99.90
9385;DHT22;4732;49.340;10.886;2023-09-19T12:52:44;22.40;99.90
9385;DHT22;4732;49.340;10.886;2023-09-19T12:55:26;22.60;99.90
9385;DHT22;4732;49.340;10.886;2023-09-19T12:58:12;22.60;99.90
9385;DHT22;4732;49.340;10.886;2023-09-19T13:00:45;22.40;99.90
9385;DHT22;4732;49.340;10.886;2023-09-19T13:05:58;22.70;99.90
9385;DHT22;4732;49.340;10.886;2023-09-19T13:08:28;22.60;99.90
9385;DHT22;4732;49.340;10.886;2023-09-19T13:16:26;23.10;99.90
9385;DHT22;4732;49.340;10.886;2023-09-19T13:18:55;23.00;99.90
9385;DHT22;4732;49.340;10.886;2023-09-19T13:21:29;23.60;99.90
9385;DHT22;4732;49.340;10.886;2023-09-19T13:23:56;23.60;99.90
9385;DHT22;4732;49.340;10.886;2023-09-19T13:26:41;24.00;99.90
9385;DHT22;4732;49.340;10.886;2023-09-19T13:29:06;23.70;99.90
9385;DHT22;4732;49.340;10.886;2023-09-19T13:31:32;23.00;99.90
9385;DHT22;4732;49.340;10.886;2023-09-19T13:33:57;23.20;99.90
9385;DHT22;4732;49.340;10.886;2023-09-19T13:36:23;23.70;99.90
9385;DHT22;4732;49.340;10.886;2023-09-19T13:38:48;24.00;99.90
9385;DHT22;4732;49.340;10.886;2023-09-19T13:41:14;23.70;99.90
9385;DHT22;4732;49.340;10.886;2023-09-19T13:43:40;23.50;99.90
9385;DHT22;4732;49.340;10.886;2023-09-19T13:46:06;22.90;99.90
9385;DHT22;4732;49.340;10.886;2023-09-19T13:48:37;22.60;99.90
9385;DHT22;4732;49.340;10.886;2023-09-19T13:51:03;23.20;99.90
9385;DHT22;4732;49.340;10.886;2023-09-19T13:53:29;23.70;99.90
9385;DHT22;4732;49.340;10.886;2023-09-19T13:55:55;23.50;99.90
9385;DHT22;4732;49.340;10.886;2023-09-19T13:58:20;24.00;99.90
9385;DHT22;4732;49.340;10.886;2023-09-19T14:00:48;23.60;99.90
9385;DHT22;4732;49.340;10.886;2023-09-19T14:03:14;23.60;99.90
9385;DHT22;4732;49.340;10.886;2023-09-19T14:05:39;23.80;99.90
9385;DHT22;4732;49.340;10.886;2023-09-19T14:08:05;24.10;99.90
9385;DHT22;4732;49.340;10.886;2023-09-19T14:10:31;24.40;99.90
9385;DHT22;4732;49.340;10.886;2023-09-19T14:12:57;24.40;99.90
9385;DHT22;4732;49.340;10.886;2023-09-19T14:15:27;24.30;99.90
9385;DHT22;4732;49.340;10.886;2023-09-19T14:17:56;24.20;99.90
9385;DHT22;4732;49.340;10.886;2023-09-19T14:20:22;24.10;99.90
9385;DHT22;4732;49.340;10.886;2023-09-19T14:22:48;24.00;99.90
9385;DHT22;4732;49.340;10.886;2023-09-19T14:25:14;23.70;99.90
9385;DHT22;4732;49.340;10.886;2023-09-19T14:27:39;23.50;99.90
9385;DHT22;4732;49.340;10.886;2023-09-19T14:30:06;23.20;99.90
9385;DHT22;4732;49.340;10.886;2023-09-19T14:32:31;23.50;99.90
9385;DHT22;4732;49.340;10.886;2023-09-19T14:34:57;23.60;99.90
9385;DHT22;4732;49.340;10.886;2023-09-19T14:37:23;24.00;99.90
9385;DHT22;4732;49.340;10.886;2023-09-19T14:39:48;23.90;99.90
9385;DHT22;4732;49.340;10.886;2023-09-19T14:42:14;24.30;99.90
9385;DHT22;4732;49.340;10.886;2023-09-19T14:44:43;24.30;99.90
9385;DHT22;4732;49.340;10.886;2023-09-19T14:47:09;24.50;99.90
9385;DHT22;4732;49.340;10.886;2023-09-19T14:49:39;24.70;99.90
9385;DHT22;4732;49.340;10.886;2023-09-19T14:52:07;24.30;99.90
9385;DHT22;4732;49.340;10.886;2023-09-19T14:54:33;24.60;99.90
9385;DHT22;4732;49.340;10.886;2023-09-19T14:56:59;24.50;99.90
9385;DHT22;4732;49.340;10.886;2023-09-19T14:59:31;24.50;99.90
9385;DHT22;4732;49.340;10.886;2023-09-19T15:01:57;23.70;99.90
9385;DHT22;4732;49.340;10.886;2023-09-19T15:04:24;23.70;99.90
9385;DHT22;4732;49.340;10.886;2023-09-19T15:06:49;23.50;99.90
9385;DHT22;4732;49.340;10.886;2023-09-19T15:09:16;24.00;99.90
9385;DHT22;4732;49.340;10.886;2023-09-19T15:11:44;23.90;99.90
9385;DHT22;4732;49.340;10.886;2023-09-19T15:14:09;23.60;99.90
9385;DHT22;4732;49.340;10.886;2023-09-19T15:16:35;23.20;99.90
9385;DHT22;4732;49.340;10.886;2023-09-19T15:19:01;23.30;99.90
9385;DHT22;4732;49.340;10.886;2023-09-19T15:21:26;23.60;99.90
9385;DHT22;4732;49.340;10.886;2023-09-19T15:23:52;23.90;99.90
9385;DHT22;4732;49.340;10.886;2023-09-19T15:26:17;24.20;99.90
9385;DHT22;4732;49.340;10.886;2023-09-19T15:28:45;24.20;99.90
9385;DHT22;4732;49.340;10.886;2023-09-19T15:31:11;24.40;99.90
9385;DHT22;4732;49.340;10.886;2023-09-19T15:33:38;24.40;99.90
9385;DHT22;4732;49.340;10.886;2023-09-19T15:36:08;24.50;99.90
9385;DHT22;4732;49.340;10.886;2023-09-19T15:39:02;24.40;99.90
9385;DHT22;4732;49.340;10.886;2023-09-19T15:41:30;23.90;99.90
9385;DHT22;4732;49.340;10.886;2023-09-19T15:43:57;23.80;99.90
9385;DHT22;4732;49.340;10.886;2023-09-19T15:46:24;23.60;99.90
9385;DHT22;4732;49.340;10.886;2023-09-19T15:48:52;23.60;99.90
9385;DHT22;4732;49.340;10.886;2023-09-19T15:51:18;23.20;99.90
9385;DHT22;4732;49.340;10.886;2023-09-19T15:53:46;22.90;99.90
9385;DHT22;4732;49.340;10.886;2023-09-19T15:56:12;22.70;99.90
9385;DHT22;4732;49.340;10.886;2023-09-19T15:58:43;22.30;99.90
9385;DHT22;4732;49.340;10.886;2023-09-19T16:01:09;22.10;99.90
9385;DHT22;4732;49.340;10.886;2023-09-19T16:03:40;21.80;99.90
9385;DHT22;4732;49.340;10.886;2023-09-19T16:06:13;21.60;99.90
9385;DHT22;4732;49.340;10.886;2023-09-19T16:08:46;21.70;99.90
9385;DHT22;4732;49.340;10.886;2023-09-19T16:11:12;21.50;99.90
9385;DHT22;4732;49.340;10.886;2023-09-19T16:13:39;21.30;99.90
9385;DHT22;4732;49.340;10.886;2023-09-19T16:16:06;21.00;99.90
9385;DHT22;4732;49.340;10.886;2023-09-19T16:18:33;20.90;99.90
9385;DHT22;4732;49.340;10.886;2023-09-19T16:21:02;20.80;99.90
9385;DHT22;4732;49.340;10.886;2023-09-19T16:23:29;20.80;99.90
9385;DHT22;4732;49.340;10.886;2023-09-19T16:26:16;20.70;99.90
9385;DHT22;4732;49.340;10.886;2023-09-19T16:28:44;20.60;99.90
9385;DHT22;4732;49.340;10.886;2023-09-19T16:31:10;20.50;99.90
9385;DHT22;4732;49.340;10.886;2023-09-19T16:33:38;20.50;99.90
9385;DHT22;4732;49.340;10.886;2023-09-19T16:36:10;20.50;99.90
9385;DHT22;4732;49.340;10.886;2023-09-19T16:38:36;20.40;99.90
9385;DHT22;4732;49.340;10.886;2023-09-19T16:41:03;20.40;99.90
9385;DHT22;4732;49.340;10.886;2023-09-19T16:43:30;20.40;99.90
9385;DHT22;4732;49.340;10.886;2023-09-19T16:45:57;20.10;99.90
9385;DHT22;4732;49.340;10.886;2023-09-19T16:48:24;20.20;99.90
9385;DHT22;4732;49.340;10.886;2023-09-19T16:50:52;20.20;99.90
9385;DHT22;4732;49.340;10.886;2023-09-19T16:53:18;20.10;99.90
9385;DHT22;4732;49.340;10.886;2023-09-19T16:55:47;19.90;99.90
9385;DHT22;4732;49.340;10.886;2023-09-19T16:58:14;19.80;99.90
9385;DHT22;4732;49.340;10.886;2023-09-19T17:00:39;19.70;99.90
9385;DHT22;4732;49.340;10.886;2023-09-19T17:03:05;19.40;99.90
9385;DHT22;4732;49.340;10.886;2023-09-19T17:05:31;19.20;99.90
9385;DHT22;4732;49.340;10.886;2023-09-19T17:07:57;19.30;99.90
9385;DHT22;4732;49.340;10.886;2023-09-19T17:10:30;19.40;99.90
9385;DHT22;4732;49.340;10.886;2023-09-19T17:12:58;19.40;99.90
9385;DHT22;4732;49.340;10.886;2023-09-19T17:15:23;19.20;99.90
9385;DHT22;4732;49.340;10.886;2023-09-19T17:17:50;19.00;99.90
9385;DHT22;4732;49.340;10.886;2023-09-19T17:20:15;18.80;99.90
9385;DHT22;4732;49.340;10.886;2023-09-19T17:22:41;18.60;99.90
9385;DHT22;4732;49.340;10.886;2023-09-19T17:25:07;18.40;99.90
9385;DHT22;4732;49.340;10.886;2023-09-19T17:27:33;18.30;99.90
9385;DHT22;4732;49.340;10.886;2023-09-19T17:29:58;18.20;99.90
9385;DHT22;4732;49.340;10.886;2023-09-19T17:32:24;18.20;99.90
9385;DHT22;4732;49.340;10.886;2023-09-19T17:34:49;18.00;99.90
9385;DHT22;4732;49.340;10.886;2023-09-19T17:37:15;18.00;99.90
9385;DHT22;4732;49.340;10.886;2023-09-19T17:39:40;17.90;99.90
9385;DHT22;4732;49.340;10.886;2023-09-19T17:42:06;17.80;99.90
9385;DHT22;4732;49.340;10.886;2023-09-19T17:44:33;17.80;99.90
9385;DHT22;4732;49.340;10.886;2023-09-19T17:47:00;17.70;99.90
9385;DHT22;4732;49.340;10.886;2023-09-19T17:49:29;17.70;99.90
9385;DHT22;4732;49.340;10.886;2023-09-19T17:51:54;17.60;99.90
9385;DHT22;4732;49.340;10.886;2023-09-19T17:54:19;17.50;99.90
9385;DHT22;4732;49.340;10.886;2023-09-19T17:56:45;18.30;99.90
9385;DHT22;4732;49.340;10.886;2023-09-19T17:59:10;17.10;99.90
9385;DHT22;4732;49.340;10.886;2023-09-19T18:01:37;17.00;99.90
9385;DHT22;4732;49.340;10.886;2023-09-19T18:04:03;17.30;99.90
9385;DHT22;4732;49.340;10.886;2023-09-19T18:06:30;16.70;99.90
9385;DHT22;4732;49.340;10.886;2023-09-19T18:08:57;17.80;99.90
9385;DHT22;4732;49.340;10.886;2023-09-19T18:11:23;16.30;99.90
9385;DHT22;4732;49.340;10.886;2023-09-19T18:13:55;16.50;99.90
9385;DHT22;4732;49.340;10.886;2023-09-19T18:16:22;16.60;99.90
9385;DHT22;4732;49.340;10.886;2023-09-19T18:18:50;16.50;99.90
9385;DHT22;4732;49.340;10.886;2023-09-19T18:21:18;16.40;99.90
9385;DHT22;4732;49.340;10.886;2023-09-19T18:23:56;16.40;99.90
9385;DHT22;4732;49.340;10.886;2023-09-19T18:26:22;16.20;99.90
9385;DHT22;4732;49.340;10.886;2023-09-19T18:28:49;16.10;99.90
9385;DHT22;4732;49.340;10.886;2023-09-19T18:31:15;16.10;99.90
9385;DHT22;4732;49.340;10.886;2023-09-19T18:33:42;16.00;99.90
9385;DHT22;4732;49.340;10.886;2023-09-19T18:36:08;15.90;99.90
9385;DHT22;4732;49.340;10.886;2023-09-19T18:38:41;15.70;99.90
9385;DHT22;4732;49.340;10.886;2023-09-19T18:41:11;15.70;99.90
9385;DHT22;4732;49.340;10.886;2023-09-19T18:43:37;15.70;99.90
9385;DHT22;4732;49.340;10.886;2023-09-19T18:46:05;15.60;99.90
9385;DHT22;4732;49.340;10.886;2023-09-19T18:48:31;15.50;99.90
9385;DHT22;4732;49.340;10.886;2023-09-19T18:50:57;15.50;99.90
9385;DHT22;4732;49.340;10.886;2023-09-19T18:53:23;15.40;99.90
9385;DHT22;4732;49.340;10.886;2023-09-19T18:56:02;15.30;99.90
9385;DHT22;4732;49.340;10.886;2023-09-19T18:58:28;15.20;99.90
9385;DHT22;4732;49.340;10.886;2023-09-19T19:01:00;15.10;99.90
9385;DHT22;4732;49.340;10.886;2023-09-19T19:03:26;15.00;99.90
9385;DHT22;4732;49.340;10.886;2023-09-19T21:42:34;13.10;99.90
9385;DHT22;4732;49.340;10.886;2023-09-19T21:44:59;12.90;99.90
9385;DHT22;4732;49.340;10.886;2023-09-19T21:47:25;12.80;99.90
9385;DHT22;4732;49.340;10.886;2023-09-19T21:49:50;12.80;99.90
9385;DHT22;4732;49.340;10.886;2023-09-19T21:52:16;12.70;99.90
9385;DHT22;4732;49.340;10.886;2023-09-19T21:54:42;12.70;99.90
9385;DHT22;4732;49.340;10.886;2023-09-19T21:57:07;12.60;99.90
9385;DHT22;4732;49.340;10.886;2023-09-19T21:59:33;12.50;99.90
9385;DHT22;4732;49.340;10.886;2023-09-19T22:01:59;12.40;99.90